LTAC/ESB METAR and TAF weather

Enter ICAO airport designator
Station Type Date Time Source
LTAC METAR 2019/07/18 10:50 UTC NOAA

LTAC 181050Z 04008KT 350V100 9999 SCT040 BKN100 23/10 Q1011 NOSIG


Station Type Date Time Source
LTAC Decoded METAR 2019/07/18 10:50 UTC NOAA

Ankara / Esenboga, Turkey (LTAC) 40-07N 032-59E 949M
Jul 18, 2019 - 06:50 AM EDT / 2019.07.18 1050 UTC
Wind: from the NE (040 degrees) at 9 MPH (8 KT) (direction variable):0
Visibility: greater than 7 mile(s):0
Sky conditions: mostly cloudy
Temperature: 73 F (23 C)
Dew Point: 50 F (10 C)
Relative Humidity: 43%
Pressure (altimeter): 29.85 in. Hg (1011 hPa)
ob: LTAC 181050Z 04008KT 350V100 9999 SCT040 BKN100 23/10 Q1011 NOSIG
cycle: 11

Station Type Date Time Source
LTAC TAF 2019/07/18 12:03 UTC NOAA

TAF TAF LTAC 181040Z 1812/1912 04009KT 9999 SCT040 BKN100
BECMG 1818/1821 CAVOK
BECMG 1904/1906 SCT040

Example: see airport list